Aviation Digital Data Service (ADDS)

Output produced by METARs form (1346 UTC 26 May 2018)
found at http://www.aviationweather.gov/adds/metars/
 
TAF MKJP 261115Z 2612/2712 14022KT 9999 FEW022 
     BECMG 2702/2704 12012KT
       
TAF MKJS 261115Z 2612/2712 14005KT 9999 FEW022CB 
     BECMG 2614/2616 08015KT SCT020 FEW022CB 
     TEMPO 2618/2622 6000 TSRA BKN018 SCT020CB 
     BECMG 2701/2703 15005KT FEW020CB